»·PEaware :: DAL189 KPDX-KGEG

DAL189 :: KPDX-KGEG

FLIGHT INFORMATION

Flight Status: Arrived
Operator:
Delta Air Lines
More flights by this operator :: More flights under this callsign
Pilot: Patricio R. (14780)
Aircraft: AIRBUS A320
(A320)
More flights by this aircraft type
Origin: KPDX Portland Intl
United States
Destination: KGEG Spokane Intl
United States
More flights between these airports :: More routes between these airports
Route: LAVAA6 YKM V448 MWH ZOOMR1
File this flight plan on PilotEdge
Remarks:
Altitude:
(Current/Filed)
25,000ft
Speed:
(Current/Filed)
404kts
Departed: 23-Jul-18 03:00 PM
Arrived: 23-Jul-18 03:47 PM
Distance/Time
Traveled:
242nm/0:46
Distance/Time
To Go:
Arrived

Flight Plot

Page will automatically refresh every two minutes.

Flight plan parsing failed; only flown route is shown


Map Options




Map Legend


Flown Route
Filed Route
Departure Airport
Arrival Airport
Navaid (VOR, NDB)
Fix

Horizontal Profiles

Position Reports

Time Latitude Longitude Heading Altitude Ground
Speed
23-Jul-18 14:42 45.591400 -122.594723 230 38ft 0kts
23-Jul-18 14:43 45.591400 -122.594723 230 38ft 0kts
23-Jul-18 14:44 45.591400 -122.594723 230 38ft 0kts
23-Jul-18 14:45 45.591400 -122.594723 230 38ft 0kts
23-Jul-18 14:46 45.591400 -122.594723 230 38ft 0kts
23-Jul-18 14:47 45.591400 -122.594723 230 38ft 0kts
23-Jul-18 14:48 45.591400 -122.594723 230 38ft 0kts
23-Jul-18 14:49 45.591400 -122.594723 230 38ft 0kts
23-Jul-18 14:50 45.591400 -122.594723 230 38ft 0kts
23-Jul-18 14:51 45.591400 -122.594723 230 38ft 0kts
23-Jul-18 14:52 45.591400 -122.594723 230 38ft 0kts
23-Jul-18 14:53 45.591401 -122.594722 230 38ft 0kts
23-Jul-18 14:54 45.591658 -122.594280 229 38ft 2kts
23-Jul-18 14:55 45.592069 -122.593977 130 38ft 1kts
23-Jul-18 14:56 45.592114 -122.594079 117 38ft 0kts
23-Jul-18 14:57 45.592114 -122.594079 117 38ft 0kts
23-Jul-18 14:58 45.590264 -122.587299 105 38ft 23kts
23-Jul-18 14:59 45.586591 -122.577807 119 38ft 31kts
23-Jul-18 15:00 45.582821 -122.568047 112 38ft 17kts
23-Jul-18 15:01 45.593223 -122.591591 298 429ft 178kts
23-Jul-18 15:02 45.616416 -122.664745 286 3815ft 244kts
23-Jul-18 15:03 45.652049 -122.757151 300 7660ft 279kts
23-Jul-18 15:04 45.722928 -122.773247 27 11443ft 314kts
23-Jul-18 15:05 45.757246 -122.662843 92 14214ft 361kts
23-Jul-18 15:06 45.755663 -122.508040 92 16432ft 403kts
23-Jul-18 15:07 45.753855 -122.344550 93 18959ft 422kts
23-Jul-18 15:08 45.751596 -122.174800 93 21177ft 439kts
23-Jul-18 15:09 45.748943 -121.997244 93 23169ft 454kts
23-Jul-18 15:10 45.769933 -121.818512 55 24901ft 475kts
23-Jul-18 15:11 45.854857 -121.674046 47 25092ft 479kts
23-Jul-18 15:12 45.941338 -121.528489 48 25099ft 472kts
23-Jul-18 15:13 46.026252 -121.384592 48 25095ft 480kts
23-Jul-18 15:14 46.106286 -121.248300 48 25094ft 480kts
23-Jul-18 15:15 46.191402 -121.102611 48 25110ft 479kts
23-Jul-18 15:16 46.276719 -120.955795 48 25159ft 478kts
23-Jul-18 15:17 46.361875 -120.808475 48 25150ft 477kts
23-Jul-18 15:18 46.446661 -120.661012 48 25145ft 477kts
23-Jul-18 15:19 46.531420 -120.512793 48 25148ft 477kts
23-Jul-18 15:20 46.615875 -120.365682 47 25150ft 477kts
23-Jul-18 15:21 46.699345 -120.221071 48 25144ft 477kts
23-Jul-18 15:22 46.784364 -120.072852 48 25155ft 477kts
23-Jul-18 15:23 46.868919 -119.924641 48 25173ft 471kts
23-Jul-18 15:24 46.952716 -119.776941 48 25167ft 474kts
23-Jul-18 15:25 47.036286 -119.628818 48 25173ft 473kts
23-Jul-18 15:26 47.118409 -119.482493 48 25172ft 473kts
23-Jul-18 15:27 47.192474 -119.349936 48 24439ft 432kts
23-Jul-18 15:28 47.237944 -119.192505 72 23520ft 420kts
23-Jul-18 15:29 47.272880 -119.030851 72 21956ft 410kts
23-Jul-18 15:30 47.306844 -118.872551 73 19772ft 402kts
23-Jul-18 15:31 47.339766 -118.717938 73 17625ft 391kts
23-Jul-18 15:32 47.371455 -118.567994 73 15542ft 377kts
23-Jul-18 15:33 47.401796 -118.423391 72 13570ft 360kts
23-Jul-18 15:34 47.430955 -118.296352 59 12100ft 336kts
23-Jul-18 15:35 47.475893 -118.186688 59 12063ft 306kts
23-Jul-18 15:36 47.519693 -118.078866 59 12052ft 304kts
23-Jul-18 15:37 47.560590 -117.978105 59 11869ft 273kts
23-Jul-18 15:38 47.599139 -117.882694 59 10885ft 269kts
23-Jul-18 15:39 47.635624 -117.792151 59 10343ft 241kts
23-Jul-18 15:40 47.668030 -117.711501 59 8747ft 218kts
23-Jul-18 15:41 47.692436 -117.651071 59 7745ft 200kts
23-Jul-18 15:42 47.725932 -117.567162 59 5729ft 207kts
23-Jul-18 15:43 47.742469 -117.498963 98 5009ft 147kts
23-Jul-18 15:44 47.720669 -117.451097 153 4399ft 143kts
23-Jul-18 15:45 47.682748 -117.448471 204 3690ft 139kts
23-Jul-18 15:46 47.658391 -117.478130 223 3102ft 136kts
23-Jul-18 15:47 47.631946 -117.517129 225 2427ft 133kts
23-Jul-18 15:48 47.620169 -117.536536 253 2368ft 20kts
23-Jul-18 15:49 47.620028 -117.537346 256 2368ft 4kts
23-Jul-18 15:50 47.622363 -117.535642 45 2368ft 15kts
23-Jul-18 15:51 47.623998 -117.535880 2 2368ft 1kts

Navigation Log

Ident Type
Flight plan parsing failed, navigation log unavailable